createdAt,value
2022-08-17T00:00:44.030Z,23.20
2022-08-17T00:03:13.611Z,23.10
2022-08-17T00:05:44.698Z,23.10
2022-08-17T00:08:12.654Z,23.10
2022-08-17T00:10:42.003Z,23.10
2022-08-17T00:13:14.357Z,23.10
2022-08-17T00:15:42.366Z,23.10
2022-08-17T00:19:06.071Z,23.00
2022-08-17T00:20:58.654Z,23.00
2022-08-17T00:23:26.788Z,23.00
2022-08-17T00:25:55.598Z,23.00
2022-08-17T00:28:25.224Z,23.00
2022-08-17T00:30:53.811Z,23.00
2022-08-17T00:33:25.888Z,22.90
2022-08-17T00:35:55.089Z,22.90
2022-08-17T00:38:23.965Z,22.80
2022-08-17T00:40:55.635Z,22.80
2022-08-17T00:43:27.508Z,22.80
2022-08-17T00:45:56.146Z,22.70
2022-08-17T00:48:29.690Z,22.70
2022-08-17T00:51:12.952Z,22.60
2022-08-17T00:53:44.914Z,22.60
2022-08-17T00:56:18.044Z,22.60
2022-08-17T00:58:47.223Z,22.60
2022-08-17T01:01:21.195Z,22.50
2022-08-17T01:03:50.513Z,22.50
2022-08-17T01:06:18.851Z,22.50
2022-08-17T01:08:46.949Z,22.50
2022-08-17T01:11:15.012Z,22.50
2022-08-17T01:13:45.564Z,22.40
2022-08-17T01:16:19.082Z,22.40
2022-08-17T01:18:49.822Z,22.40
2022-08-17T01:21:27.575Z,22.40
2022-08-17T01:23:57.075Z,22.40
2022-08-17T01:26:24.993Z,22.40
2022-08-17T01:28:55.780Z,22.40
2022-08-17T01:31:26.707Z,22.40
2022-08-17T01:33:54.564Z,22.40
2022-08-17T01:36:22.492Z,22.40
2022-08-17T01:38:50.342Z,22.40
2022-08-17T01:41:22.486Z,22.30
2022-08-17T01:43:51.967Z,22.30
2022-08-17T01:46:24.427Z,22.30
2022-08-17T01:48:52.461Z,22.20
2022-08-17T01:51:21.093Z,22.20
2022-08-17T01:53:51.583Z,22.20
2022-08-17T01:56:24.158Z,22.20
2022-08-17T01:58:52.112Z,22.20
2022-08-17T02:01:24.294Z,22.20
2022-08-17T02:03:56.129Z,22.10
2022-08-17T02:06:30.057Z,22.10
2022-08-17T02:09:02.362Z,22.00
2022-08-17T02:11:34.321Z,22.10
2022-08-17T02:14:04.100Z,22.10
2022-08-17T02:16:37.517Z,22.10
2022-08-17T02:19:08.267Z,22.00
2022-08-17T02:21:37.396Z,22.00
2022-08-17T02:24:06.483Z,22.00
2022-08-17T02:26:36.383Z,22.00
2022-08-17T02:29:05.046Z,22.00
2022-08-17T02:31:33.198Z,21.90
2022-08-17T02:34:04.778Z,21.80
2022-08-17T02:36:34.401Z,21.80
2022-08-17T02:39:03.178Z,21.80
2022-08-17T02:41:31.061Z,21.70
2022-08-17T02:44:00.359Z,21.60
2022-08-17T02:46:28.362Z,21.60
2022-08-17T02:48:56.307Z,21.60
2022-08-17T02:51:24.169Z,21.70
2022-08-17T02:53:52.033Z,21.70
2022-08-17T02:56:19.871Z,21.70
2022-08-17T02:58:47.710Z,21.60
2022-08-17T03:01:17.224Z,21.60
2022-08-17T03:03:45.095Z,21.60
2022-08-17T03:06:13.056Z,21.70
2022-08-17T03:08:40.875Z,21.70
2022-08-17T03:11:08.719Z,21.60
2022-08-17T03:13:36.520Z,21.60
2022-08-17T03:16:04.784Z,21.60
2022-08-17T03:18:34.001Z,21.60
2022-08-17T03:21:04.342Z,21.60
2022-08-17T03:23:33.675Z,21.60
2022-08-17T03:26:02.215Z,21.60
2022-08-17T03:28:30.201Z,21.60
2022-08-17T03:30:58.015Z,21.50
2022-08-17T03:33:25.839Z,21.50
2022-08-17T03:35:54.983Z,21.50
2022-08-17T03:38:23.206Z,21.40
2022-08-17T03:40:56.488Z,21.40
2022-08-17T03:43:29.147Z,21.30
2022-08-17T03:46:28.216Z,21.30
2022-08-17T03:49:19.481Z,21.30
2022-08-17T03:52:06.482Z,21.30
2022-08-17T03:54:51.927Z,21.30
2022-08-17T03:57:20.317Z,21.30
2022-08-17T03:59:48.230Z,21.20
2022-08-17T04:02:19.872Z,21.30
2022-08-17T04:04:50.802Z,21.20
2022-08-17T04:07:20.910Z,21.30
2022-08-17T04:09:49.117Z,21.30
2022-08-17T04:12:18.184Z,21.30
2022-08-17T04:14:53.307Z,21.30
2022-08-17T04:17:24.516Z,21.30
2022-08-17T04:19:52.936Z,21.20
2022-08-17T04:22:30.131Z,21.20
2022-08-17T04:25:08.482Z,21.20
2022-08-17T04:27:36.366Z,21.20
2022-08-17T04:30:06.914Z,21.10
2022-08-17T04:33:00.852Z,21.10
2022-08-17T04:35:36.538Z,21.10
2022-08-17T04:38:06.240Z,21.10
2022-08-17T04:40:51.854Z,21.10
2022-08-17T04:43:21.558Z,21.10
2022-08-17T04:45:56.025Z,21.10
2022-08-17T04:48:35.718Z,21.10
2022-08-17T04:51:07.143Z,21.10
2022-08-17T04:53:37.036Z,21.10
2022-08-17T04:56:05.337Z,21.00
2022-08-17T04:58:33.435Z,21.00
2022-08-17T05:01:01.498Z,21.10
2022-08-17T05:03:29.551Z,21.10
2022-08-17T05:05:57.389Z,21.10
2022-08-17T05:08:25.324Z,21.10
2022-08-17T05:10:54.468Z,21.10
2022-08-17T05:13:24.212Z,21.20
2022-08-17T05:16:00.025Z,21.20
2022-08-17T05:18:29.053Z,21.20
2022-08-17T05:20:58.014Z,21.20
2022-08-17T05:23:41.866Z,21.20
2022-08-17T05:26:25.681Z,21.20
2022-08-17T05:28:59.568Z,21.10
2022-08-17T05:31:29.366Z,21.20
2022-08-17T05:33:57.410Z,21.20
2022-08-17T05:36:42.545Z,21.20
2022-08-17T05:39:15.903Z,21.30
2022-08-17T05:41:47.760Z,21.30
2022-08-17T05:44:15.666Z,21.30
2022-08-17T05:46:48.490Z,21.30
2022-08-17T05:49:19.078Z,21.30
2022-08-17T05:52:09.142Z,21.40
2022-08-17T05:54:45.052Z,21.40
2022-08-17T05:57:27.091Z,21.40
2022-08-17T06:00:01.838Z,21.40
2022-08-17T06:02:38.646Z,21.50
2022-08-17T06:05:17.734Z,21.40
2022-08-17T06:07:53.159Z,21.50
2022-08-17T06:10:31.310Z,21.50
2022-08-17T06:13:11.566Z,21.60
2022-08-17T06:15:50.922Z,21.60
2022-08-17T06:18:21.573Z,21.60
2022-08-17T06:20:55.405Z,21.70
2022-08-17T06:23:30.236Z,21.70
2022-08-17T06:26:05.557Z,21.70
2022-08-17T06:28:39.208Z,21.80
2022-08-17T06:31:13.947Z,21.80
2022-08-17T06:33:42.713Z,21.80
2022-08-17T06:36:28.042Z,21.80
2022-08-17T06:39:05.261Z,21.90
2022-08-17T06:41:44.650Z,21.90
2022-08-17T06:44:43.513Z,22.00
2022-08-17T06:47:12.449Z,22.00
2022-08-17T06:49:49.508Z,22.00
2022-08-17T06:52:45.812Z,22.10
2022-08-17T06:55:18.150Z,22.00
2022-08-17T06:57:51.029Z,22.10
2022-08-17T07:00:22.249Z,22.10
2022-08-17T07:02:55.305Z,22.10
2022-08-17T07:05:26.566Z,22.20
2022-08-17T07:08:11.560Z,22.20
2022-08-17T07:10:44.545Z,22.20
2022-08-17T07:13:30.614Z,22.30
2022-08-17T07:16:14.646Z,22.30
2022-08-17T07:18:43.735Z,22.30
2022-08-17T07:21:26.841Z,22.30
2022-08-17T07:24:04.288Z,22.30
2022-08-17T07:26:32.119Z,22.40
2022-08-17T07:29:01.717Z,22.40
2022-08-17T07:31:33.481Z,22.40
2022-08-17T07:34:05.860Z,22.50
2022-08-17T07:36:34.383Z,22.50
2022-08-17T07:39:04.355Z,22.50
2022-08-17T07:41:53.037Z,22.50
2022-08-17T07:44:25.299Z,22.50
2022-08-17T07:47:12.991Z,22.60
2022-08-17T07:49:44.622Z,22.60
2022-08-17T07:52:50.501Z,22.60
2022-08-17T07:55:31.085Z,22.60
2022-08-17T07:58:00.142Z,22.60
2022-08-17T08:00:32.664Z,22.70
2022-08-17T08:03:26.177Z,22.70
2022-08-17T08:05:57.364Z,22.70
2022-08-17T08:08:34.094Z,22.80
2022-08-17T08:11:08.505Z,22.80
2022-08-17T08:13:42.261Z,22.80
2022-08-17T08:16:25.983Z,22.80
2022-08-17T08:18:58.488Z,22.80
2022-08-17T08:21:36.644Z,22.80
2022-08-17T08:24:32.626Z,22.90
2022-08-17T08:27:20.349Z,22.90
2022-08-17T08:29:56.536Z,22.90
2022-08-17T08:32:38.889Z,22.90
2022-08-17T08:35:13.376Z,22.90
2022-08-17T08:37:49.356Z,22.90
2022-08-17T08:40:34.530Z,23.00
2022-08-17T08:43:13.466Z,23.00
2022-08-17T08:45:51.509Z,23.00
2022-08-17T08:48:56.878Z,23.00
2022-08-17T08:51:39.594Z,23.10
2022-08-17T08:54:17.390Z,23.10
2022-08-17T08:57:23.889Z,23.10
2022-08-17T08:59:59.578Z,23.10
2022-08-17T09:02:47.716Z,23.10
2022-08-17T09:05:26.550Z,23.20
2022-08-17T09:08:04.324Z,23.20
2022-08-17T09:10:39.890Z,23.20
2022-08-17T09:13:16.371Z,23.20
2022-08-17T09:15:48.271Z,23.30
2022-08-17T09:19:00.481Z,23.20
2022-08-17T09:21:12.351Z,23.30
2022-08-17T09:23:45.721Z,23.30
2022-08-17T09:26:22.856Z,23.40
2022-08-17T09:28:52.326Z,23.30
2022-08-17T09:31:24.079Z,23.40
2022-08-17T09:33:53.752Z,23.40
2022-08-17T09:36:26.668Z,23.40
2022-08-17T09:39:03.582Z,23.50
2022-08-17T09:41:37.045Z,23.50
2022-08-17T09:44:23.271Z,23.60
2022-08-17T09:46:56.879Z,23.60
2022-08-17T09:49:31.339Z,23.60
2022-08-17T09:52:03.330Z,23.70
2022-08-17T09:54:40.993Z,23.70
2022-08-17T09:57:31.787Z,23.70
2022-08-17T10:00:16.291Z,23.80
2022-08-17T10:02:59.183Z,23.80
2022-08-17T10:05:37.507Z,23.80
2022-08-17T10:08:15.019Z,23.80
2022-08-17T10:10:56.519Z,23.90
2022-08-17T10:13:35.067Z,24.00
2022-08-17T10:16:11.810Z,24.00
2022-08-17T10:18:50.538Z,24.00
2022-08-17T10:21:37.504Z,24.00
2022-08-17T10:24:28.325Z,24.00
2022-08-17T10:27:01.541Z,24.10
2022-08-17T10:29:47.259Z,24.10
2022-08-17T10:32:32.061Z,24.10
2022-08-17T10:35:25.956Z,24.20
2022-08-17T10:38:19.513Z,24.20
2022-08-17T10:40:58.378Z,24.20
2022-08-17T10:43:44.628Z,24.30
2022-08-17T10:46:54.217Z,24.40
2022-08-17T10:49:30.630Z,24.40
2022-08-17T10:52:00.486Z,24.50
2022-08-17T10:54:47.272Z,24.50
2022-08-17T10:57:36.080Z,24.60
2022-08-17T11:00:12.826Z,24.70
2022-08-17T11:02:47.863Z,24.70
2022-08-17T11:05:43.714Z,24.70
2022-08-17T11:08:57.516Z,24.70
2022-08-17T11:11:47.539Z,24.70
2022-08-17T11:14:28.938Z,24.70
2022-08-17T11:17:20.665Z,24.70
2022-08-17T11:20:01.925Z,24.80
2022-08-17T11:22:57.974Z,24.90
2022-08-17T11:25:35.555Z,24.90
2022-08-17T11:28:10.052Z,25.00
2022-08-17T11:30:49.000Z,25.00
2022-08-17T11:33:55.941Z,25.00
2022-08-17T11:36:36.176Z,25.00
2022-08-17T11:39:17.876Z,25.10
2022-08-17T11:41:52.428Z,25.20
2022-08-17T11:44:37.742Z,25.20
2022-08-17T11:47:29.812Z,25.20
2022-08-17T11:50:33.205Z,25.20
2022-08-17T11:53:01.186Z,25.20
2022-08-17T11:56:04.950Z,25.20
2022-08-17T11:58:39.417Z,25.20
2022-08-17T12:01:09.701Z,25.30
2022-08-17T12:03:55.340Z,25.40
2022-08-17T12:06:47.210Z,25.40
2022-08-17T12:09:19.362Z,25.40
2022-08-17T12:12:04.604Z,25.50
2022-08-17T12:15:08.868Z,25.50
2022-08-17T12:17:40.740Z,25.60
2022-08-17T12:20:16.408Z,25.60
2022-08-17T12:22:57.703Z,25.70
2022-08-17T12:25:33.208Z,25.80
2022-08-17T12:28:06.852Z,25.90
2022-08-17T12:30:37.226Z,26.00
2022-08-17T12:33:13.478Z,26.00
2022-08-17T12:35:59.750Z,26.00
2022-08-17T12:38:32.991Z,26.10
2022-08-17T12:41:24.322Z,26.20
2022-08-17T12:44:01.668Z,26.30
2022-08-17T12:46:33.388Z,26.40
2022-08-17T12:49:14.510Z,26.40
2022-08-17T12:51:47.497Z,26.50
2022-08-17T12:54:31.356Z,26.50
2022-08-17T12:57:05.436Z,26.60
2022-08-17T12:59:33.722Z,26.70
2022-08-17T13:02:02.166Z,26.60
2022-08-17T13:04:30.255Z,26.70
2022-08-17T13:07:00.115Z,26.70
2022-08-17T13:09:35.811Z,26.80
2022-08-17T13:12:09.171Z,26.90
2022-08-17T13:14:37.046Z,27.00
2022-08-17T13:17:09.869Z,27.00
2022-08-17T13:19:49.981Z,27.10
2022-08-17T13:22:23.603Z,27.10
2022-08-17T13:24:56.186Z,27.20
2022-08-17T13:27:26.117Z,27.20
2022-08-17T13:29:58.208Z,27.20
2022-08-17T13:32:37.058Z,27.30
2022-08-17T13:35:39.911Z,27.20
2022-08-17T13:38:09.796Z,27.20
2022-08-17T13:40:45.281Z,27.20
2022-08-17T13:43:13.470Z,27.10
2022-08-17T13:45:50.344Z,27.10
2022-08-17T13:48:28.139Z,27.10
2022-08-17T13:51:26.561Z,27.10
2022-08-17T13:53:59.214Z,27.10
2022-08-17T13:56:57.676Z,27.20
2022-08-17T13:59:53.704Z,27.20
2022-08-17T14:02:27.220Z,27.30
2022-08-17T14:04:58.381Z,27.40
2022-08-17T14:07:33.698Z,27.50
2022-08-17T14:10:05.252Z,27.70
2022-08-17T14:12:36.755Z,28.20
2022-08-17T14:15:05.626Z,28.70
2022-08-17T14:17:38.111Z,29.00
2022-08-17T14:20:10.198Z,29.30
2022-08-17T14:22:41.072Z,29.70
2022-08-17T14:25:10.642Z,30.10
2022-08-17T14:27:51.763Z,30.60
2022-08-17T14:30:22.793Z,30.80
2022-08-17T14:32:52.122Z,30.50
2022-08-17T14:35:22.222Z,30.40
2022-08-17T14:37:50.552Z,30.70
2022-08-17T14:40:20.758Z,31.20
2022-08-17T14:42:50.096Z,31.70
2022-08-17T14:45:32.370Z,32.10
2022-08-17T14:48:02.626Z,32.50
2022-08-17T14:50:30.632Z,32.70
2022-08-17T14:53:01.604Z,33.00
2022-08-17T14:55:29.697Z,33.20
2022-08-17T14:57:58.974Z,33.50
2022-08-17T15:00:27.112Z,33.60
2022-08-17T15:02:57.954Z,33.80
2022-08-17T15:05:26.901Z,33.90
2022-08-17T15:07:55.707Z,34.00
2022-08-17T15:10:25.828Z,33.80
2022-08-17T15:12:53.866Z,33.60
2022-08-17T15:15:23.224Z,33.60
2022-08-17T15:17:51.621Z,33.70
2022-08-17T15:20:23.815Z,33.80
2022-08-17T15:22:54.989Z,33.90
2022-08-17T15:25:23.121Z,33.50
2022-08-17T15:27:51.135Z,33.10
2022-08-17T15:30:19.234Z,32.90
2022-08-17T15:32:54.361Z,32.50
2022-08-17T15:35:27.321Z,32.00
2022-08-17T15:37:56.885Z,31.60
2022-08-17T15:40:25.060Z,31.10
2022-08-17T15:42:52.878Z,30.70
2022-08-17T15:45:26.330Z,30.50
2022-08-17T15:47:55.535Z,30.20
2022-08-17T15:50:23.418Z,30.10
2022-08-17T15:52:57.768Z,30.00
2022-08-17T15:55:26.697Z,29.90
2022-08-17T15:57:54.799Z,30.00
2022-08-17T16:00:23.927Z,30.10
2022-08-17T16:03:13.252Z,30.40
2022-08-17T16:05:41.408Z,30.50
2022-08-17T16:08:10.943Z,30.50
2022-08-17T16:10:39.057Z,30.50
2022-08-17T16:13:17.130Z,30.40
2022-08-17T16:15:56.863Z,30.40
2022-08-17T16:18:26.371Z,30.30
2022-08-17T16:20:55.526Z,30.10
2022-08-17T16:23:23.869Z,29.90
2022-08-17T16:25:52.894Z,29.70
2022-08-17T16:28:36.145Z,29.60
2022-08-17T16:31:07.997Z,29.40
2022-08-17T16:33:37.578Z,29.20
2022-08-17T16:36:08.169Z,29.10
2022-08-17T16:38:36.663Z,29.00
2022-08-17T16:41:05.090Z,28.90
2022-08-17T16:43:33.983Z,28.80
2022-08-17T16:46:01.916Z,28.80
2022-08-17T16:48:30.695Z,28.80
2022-08-17T16:51:04.324Z,28.70
2022-08-17T16:53:33.838Z,28.70
2022-08-17T16:56:01.687Z,28.60
2022-08-17T16:58:30.076Z,28.60
2022-08-17T17:00:59.395Z,28.60
2022-08-17T17:03:30.049Z,28.50
2022-08-17T17:06:07.135Z,28.50
2022-08-17T17:08:44.421Z,28.40
2022-08-17T17:11:25.700Z,28.40
2022-08-17T17:13:57.804Z,28.30
2022-08-17T17:16:37.394Z,28.20
2022-08-17T17:19:12.344Z,28.20
2022-08-17T17:21:48.658Z,28.10
2022-08-17T17:24:25.188Z,28.10
2022-08-17T17:27:21.126Z,28.00
2022-08-17T17:30:00.464Z,28.00
2022-08-17T17:32:37.752Z,28.00
2022-08-17T17:35:10.953Z,27.90
2022-08-17T17:37:40.872Z,27.90
2022-08-17T17:40:19.015Z,27.80
2022-08-17T17:42:46.900Z,27.80
2022-08-17T17:45:21.135Z,27.80
2022-08-17T17:47:49.012Z,27.70
2022-08-17T17:50:18.756Z,27.70
2022-08-17T17:53:02.087Z,27.70
2022-08-17T17:55:43.293Z,27.60
2022-08-17T17:58:22.826Z,27.60
2022-08-17T18:01:01.222Z,27.60
2022-08-17T18:03:50.418Z,27.50
2022-08-17T18:06:31.070Z,27.50
2022-08-17T18:09:10.346Z,27.40
2022-08-17T18:12:01.286Z,27.40
2022-08-17T18:14:43.539Z,27.40
2022-08-17T18:17:11.929Z,27.30
2022-08-17T18:19:39.904Z,27.20
2022-08-17T18:22:14.439Z,27.20
2022-08-17T18:24:46.049Z,27.20
2022-08-17T18:27:25.144Z,27.10
2022-08-17T18:29:54.987Z,27.10
2022-08-17T18:32:37.302Z,27.00
2022-08-17T18:35:30.515Z,27.00
2022-08-17T18:38:20.409Z,26.90
2022-08-17T18:40:59.366Z,26.90
2022-08-17T18:43:44.222Z,26.90
2022-08-17T18:46:28.408Z,26.90
2022-08-17T18:48:59.461Z,26.80
2022-08-17T18:51:41.467Z,26.80
2022-08-17T18:54:20.651Z,26.70
2022-08-17T18:56:54.517Z,26.70
2022-08-17T18:59:39.729Z,26.70
2022-08-17T19:02:43.396Z,26.70
2022-08-17T19:05:27.044Z,26.60
2022-08-17T19:07:55.681Z,26.60
2022-08-17T19:10:28.575Z,26.50
2022-08-17T19:13:00.633Z,26.50
2022-08-17T19:15:35.438Z,26.50
2022-08-17T19:18:09.905Z,26.40
2022-08-17T19:20:44.568Z,26.40
2022-08-17T19:23:17.622Z,26.40
2022-08-17T19:25:48.666Z,26.30
2022-08-17T19:28:23.995Z,26.30
2022-08-17T19:30:59.391Z,26.30
2022-08-17T19:33:27.682Z,26.30
2022-08-17T19:36:03.510Z,26.30
2022-08-17T19:38:44.904Z,26.30
2022-08-17T19:41:21.654Z,26.20
2022-08-17T19:44:20.552Z,26.20
2022-08-17T19:47:06.287Z,26.20
2022-08-17T19:49:47.297Z,26.20
2022-08-17T19:52:37.562Z,26.20
2022-08-17T19:55:18.290Z,26.20
2022-08-17T19:57:58.569Z,26.10
2022-08-17T20:00:26.632Z,26.10
2022-08-17T20:02:59.876Z,26.10
2022-08-17T20:05:30.612Z,26.10
2022-08-17T20:08:03.674Z,26.00
2022-08-17T20:10:40.290Z,26.00
2022-08-17T20:13:11.252Z,26.00
2022-08-17T20:15:42.123Z,26.00
2022-08-17T20:18:18.977Z,26.00
2022-08-17T20:20:55.834Z,25.90
2022-08-17T20:23:44.423Z,25.90
2022-08-17T20:26:19.722Z,25.90
2022-08-17T20:29:31.864Z,25.90
2022-08-17T20:32:29.739Z,25.90
2022-08-17T20:35:24.453Z,25.90
2022-08-17T20:37:56.674Z,25.90
2022-08-17T20:40:31.841Z,25.90
2022-08-17T20:43:00.933Z,25.90
2022-08-17T20:46:21.966Z,25.90
2022-08-17T20:48:53.532Z,25.90
2022-08-17T20:51:30.230Z,25.90
2022-08-17T20:54:36.633Z,25.80
2022-08-17T20:57:09.229Z,25.80
2022-08-17T21:00:02.800Z,25.80
2022-08-17T21:02:32.255Z,25.80
2022-08-17T21:05:26.096Z,25.80
2022-08-17T21:08:12.798Z,25.80
2022-08-17T21:10:43.818Z,25.80
2022-08-17T21:13:35.588Z,25.80
2022-08-17T21:16:11.635Z,25.80
2022-08-17T21:18:46.175Z,25.80
2022-08-17T21:21:23.966Z,25.70
2022-08-17T21:24:19.301Z,25.70
2022-08-17T21:26:56.533Z,25.80
2022-08-17T21:29:31.358Z,25.70
2022-08-17T21:32:25.272Z,25.80
2022-08-17T21:35:28.435Z,25.70
2022-08-17T21:38:03.469Z,25.70
2022-08-17T21:40:35.066Z,25.70
2022-08-17T21:43:18.458Z,25.70
2022-08-17T21:45:55.378Z,25.70
2022-08-17T21:48:25.763Z,25.70
2022-08-17T21:51:04.232Z,25.70
2022-08-17T21:53:38.894Z,25.70
2022-08-17T21:56:09.029Z,25.60
2022-08-17T21:58:40.463Z,25.60
2022-08-17T22:01:21.969Z,25.60
2022-08-17T22:04:03.892Z,25.60
2022-08-17T22:06:36.873Z,25.60
2022-08-17T22:09:14.707Z,25.60
2022-08-17T22:11:58.015Z,25.60
2022-08-17T22:14:53.296Z,25.60
2022-08-17T22:17:21.103Z,25.50
2022-08-17T22:19:51.774Z,25.40
2022-08-17T22:22:28.128Z,25.30
2022-08-17T22:24:58.927Z,25.30
2022-08-17T22:27:50.730Z,25.20
2022-08-17T22:30:31.205Z,25.20
2022-08-17T22:33:00.597Z,25.10
2022-08-17T22:35:47.353Z,25.00
2022-08-17T22:38:31.076Z,24.90
2022-08-17T22:41:36.683Z,25.00
2022-08-17T22:44:18.439Z,24.90
2022-08-17T22:46:57.101Z,24.90
2022-08-17T22:49:29.249Z,24.80
2022-08-17T22:52:07.002Z,24.70
2022-08-17T22:54:52.154Z,24.60
2022-08-17T22:57:44.177Z,24.50
2022-08-17T23:00:37.349Z,24.50
2022-08-17T23:03:10.394Z,24.40
2022-08-17T23:05:39.521Z,24.20
2022-08-17T23:08:07.422Z,24.10
2022-08-17T23:10:37.347Z,24.00
2022-08-17T23:13:05.343Z,24.00
2022-08-17T23:15:33.925Z,23.80
2022-08-17T23:18:04.642Z,23.70
2022-08-17T23:20:34.795Z,23.60
2022-08-17T23:23:03.348Z,23.60
2022-08-17T23:25:33.652Z,23.60
2022-08-17T23:28:02.864Z,23.60
2022-08-17T23:30:32.084Z,23.50
2022-08-17T23:33:01.590Z,23.50
2022-08-17T23:35:39.996Z,23.50
2022-08-17T23:38:09.591Z,23.50
2022-08-17T23:40:37.826Z,23.60
2022-08-17T23:43:23.397Z,23.50
2022-08-17T23:45:53.590Z,23.50
2022-08-17T23:48:28.611Z,23.50
2022-08-17T23:51:05.701Z,23.50
2022-08-17T23:53:36.224Z,23.40
2022-08-17T23:56:10.250Z,23.40
2022-08-17T23:58:39.374Z,23.40
